x

Portland 12 Nm Southeast Of Portland,me (44007) Wave Buoy

12:50am - Sun 19th Nov 2017 All times are EST. -5 hours from GMT.

  • Sig Wave height 3.3ft
  • Swell Direction
  • Peak Period 5s
  • Average Period 4s
  • Wind
    18mph, 25mph gusts
  • Sea Temp 50°f
  • Air Temp 51°f
  • Sea Pressure 996.6mb
  • Portland 12 Nm Southeast Of Portland,me
  • Portland 12 Nm Southeast Of Portland,me

More Historic Weather Station data

Upgrade to MSW Pro to gain access to the past 30 days of data for over 8000 Wavebouys and Weather Stations around the globe.

Join

Comparision Forecast

View Surf forecast
   
Sun 11/19 12:50am 3.5ft 5s 4s 18 25 mph 996.6mb 50f 51f
Sat 11/18 11:50pm 3.5ft 5s 4s 11 13 mph 998.4mb 50f 50f
10:50pm 3.5ft 5s 4s 20 25 mph 999.2mb 49f 51f
9:50pm 3.5ft 5s 4s 22 25 mph 1000.7mb 49f 50f
8:50pm 3ft 4s 4s 22 27 mph 1002.2mb 49f 49f
7:50pm 2.5ft 4s 4s 18 22 mph 1004mb 49f 47f
6:50pm 2.5ft 4s 4s 16 18 mph 1005.7mb 49f 47f
5:50pm 2.5ft 4s 4s 16 18 mph 1006.6mb 49f 46f
4:50pm 2ft 3s 3s 16 18 mph 1006.8mb 49f 45f
3:50pm 1.6ft 3s 3s 16 18 mph 1008.1mb 49f 44f
2:50pm 1.3ft 10s 3s 16 18 mph 1008.6mb 48f 42f
1:50pm 1ft 11s 3s 11 13 mph 1008.8mb 48f 41f
12:50pm 0.7ft  -  5s 11 13 mph 1010.1mb 48f 41f
11:50am 0.7ft  -  5s 4 7 mph 1011.1mb 49f 39f
10:50am 0.7ft  -  5s 7 9 mph 1012.6mb 49f 38f
9:50am 0.7ft  -  5s 7 9 mph 1013.6mb 49f 36f
8:50am 0.7ft  -  4s 2 4 mph 1014mb 48f 35f
6:50am 1ft 11s 5s 9 11 mph 1014.2mb 48f 33f
5:50am 1ft 11s 4s 9 11 mph 1013.9mb 48f 33f
4:50am 1ft 11s 4s 11 13 mph 1013.5mb 48f 33f
3:50am 1ft 11s 4s 9 11 mph 1013.6mb 49f 31f
2:50am 1.3ft 10s 3s 13 16 mph 1013.9mb 48f 32f
1:50am 1.3ft 11s 3s 11 13 mph 1014.5mb 48f 32f
12:50am 1ft 11s 4s 11 16 mph 1014.2mb 48f 33f
Fri 11/17 11:50pm 1.3ft 11s 4s 9 13 mph 1014.2mb 48f 33f
10:50pm 1.3ft 10s 4s 9 11 mph 1014.3mb 48f 33f
9:50pm 1.6ft 12s 4s 7 11 mph 1014.5mb 48f 34f
8:50pm 1.6ft 12s 3s 7 11 mph 1014.2mb 48f 34f
7:50pm 2ft 11s 4s 7 11 mph 1013.9mb 48f 35f
6:50pm 2ft 11s 4s 9 11 mph 1013.3mb 48f 35f
5:50pm 2ft 10s 4s 18 20 mph 1012.4mb 49f 36f
4:50pm 2.5ft 10s 4s 25 29 mph 1011.5mb 49f 37f
3:50pm 2.5ft 10s 4s 18 20 mph 1010.5mb 49f 40f
2:50pm 2ft 10s 4s 16 22 mph 1009.5mb 49f 41f
1:50pm 2.5ft 10s 4s 20 27 mph 1008.9mb 49f 40f
12:50pm 2.5ft 11s 4s 20 27 mph 1008.2mb 49f 40f
11:50am 2.5ft 3s 3s 22 27 mph 1007.8mb 49f 40f
10:50am 2.5ft 3s 3s 22 29 mph 1008mb 49f 40f
9:50am 2.5ft 3s 4s 20 25 mph 1008mb 49f 39f
8:50am 2.5ft 12s 4s 20 25 mph 1007.4mb 49f 39f
7:50am 2.5ft 8s 4s 20 25 mph 1006.8mb 49f 38f
6:50am 3ft 8s 5s 18 22 mph 1006.1mb 49f 39f
5:50am 3.5ft 10s 5s 20 25 mph 1004.8mb 49f 39f
4:50am 3.5ft 10s 5s 18 20 mph 1004.1mb 48f 39f
3:50am 4ft 11s 7s 16 20 mph 1003.4mb 48f 40f
2:50am 4.5ft 11s 8s 9 11 mph 1003.4mb 48f 40f
1:50am 4ft 11s 7s 9 11 mph 1003mb 49f 40f
12:50am 4ft 12s 6s 9 11 mph 1002.7mb 49f 41f
Thu 11/16 11:50pm 4ft 11s 6s 11 13 mph 1003.1mb 49f 42f
10:50pm 3.5ft 12s 5s 9 11 mph 1003.3mb 49f 42f
9:50pm 4.5ft 12s 5s 9 11 mph 1003.9mb 49f 43f
8:50pm 4.5ft 13s 5s 13 16 mph 1003.8mb 49f 44f
7:50pm 5ft 6s 5s 16 18 mph 1003.7mb 49f 45f
6:50pm 5ft 6s 6s 16 20 mph 1004.3mb 49f 46f
5:50pm 5ft 6s 6s 13 16 mph 1004.9mb 49f 47f
4:50pm 5.5ft 11s 6s 13 16 mph 1005.7mb 49f 47f
3:50pm 6ft 6s 6s 13 16 mph 1006.8mb 49f 47f
2:50pm 6ft 11s 5s 18 20 mph 1007.5mb 49f 48f
1:50pm 5.5ft 11s 5s 16 20 mph 1007.7mb 49f 48f
12:50pm 6ft 5s 6s 18 22 mph 1008.7mb 49f 48f
11:50am 6ft 12s 5s 20 25 mph 1010.5mb 50f 48f
10:50am 5ft 12s 5s 22 27 mph 1012.1mb 50f 47f
9:50am 4.5ft 13s 5s 20 25 mph 1012.8mb 50f 48f
8:50am 4.5ft 12s 5s 18 22 mph 1013.9mb 50f 48f
7:50am 4ft 13s 5s 16 20 mph 1014.6mb 49f 47f
6:50am 3.5ft 13s 6s 16 20 mph 1015.5mb 49f 46f
5:50am 4ft 9s 7s 16 20 mph 1016.6mb 49f 46f
4:50am 4ft 11s 8s 11 16 mph 1017.5mb 49f 44f
3:50am 4.5ft 11s 9s 9 13 mph 1017.9mb 49f 43f
2:50am 4ft 11s 8s 9 16 mph 1019.1mb 49f 43f
1:50am 4ft 12s 8s 7 11 mph 1020.1mb 49f 42f
12:50am 4ft 11s 8s 7 11 mph 1020.3mb 48f 40f
Wed 11/15 11:50pm 3.5ft 11s 7s 4 9 mph 1020.7mb 48f 40f
10:50pm 3.5ft 11s 7s 4 7 mph 1021.6mb 49f 40f
9:50pm 3ft 11s 6s 7 7 mph 1022.3mb 49f 39f
8:50pm 3ft 11s 6s 7 11 mph 1022.8mb 48f 39f
7:50pm 3.5ft 11s 6s 11 13 mph 1022.9mb 48f 39f
6:50pm 3.5ft 11s 6s 7 11 mph 1023.9mb 48f 39f
5:50pm 4ft 11s 7s 7 9 mph 1024.2mb 49f 38f
4:50pm 4.5ft 9s 7s 9 13 mph 1023.7mb 49f 39f
3:50pm 4.5ft 10s 7s 7 9 mph 1024.1mb 49f 39f
2:50pm 4ft 10s 7s 9 11 mph 1024.2mb 49f 39f
1:50pm 4ft 11s 7s 7 11 mph 1024.5mb 49f 38f
12:50pm 3.5ft 9s 6s 7 11 mph 1024.8mb 49f 38f
11:50am 3.5ft 10s 6s 7 11 mph 1025.5mb 49f 37f
10:50am 3.5ft 10s 6s 9 11 mph 1026.6mb 49f 37f
9:50am 3.5ft 9s 5s 11 16 mph 1027mb 49f 37f
8:50am 4.5ft 7s 5s 13 20 mph 1027.1mb 49f 38f
7:50am 4ft 7s 5s 13 18 mph 1027.2mb 48f 37f